Time;durP1;ratioP1;P1;durP2;ratioP2;P2;SDS_P1;SDS_P2;PMS_P1;PMS_P2;Temp;Humidity;BMP_temperature;BMP_pressure;BME280_temperature;BME280_humidity;BME280_pressure;Samples;Min_cycle;Max_cycle;Signal;HPM_P1;HPM_P2
2022/11/06 00:00:25;;;;;;;10.13;5.85;;;6.80;99.90;;;;;;4906391;29;20201;-88
2022/11/06 00:02:52;;;;;;;7.15;5.57;;;6.50;99.90;;;;;;4910227;29;20204;-88
2022/11/06 00:08:05;;;;;;;14.18;6.88;;;6.50;99.90;;;;;;4905580;29;20662;-88
2022/11/06 00:10:33;;;;;;;12.20;6.93;;;;;;;;;;4904199;29;20205;-88
2022/11/06 00:13:00;;;;;;;11.73;5.68;;;;;;;;;;4905136;29;20219;-87
2022/11/06 00:15:29;;;;;;;7.82;6.38;;;;;;;;;;4904512;29;20315;-88
2022/11/06 00:17:56;;;;;;;14.02;7.10;;;;;;;;;;4904061;29;20204;-89
2022/11/06 00:20:23;;;;;;;13.32;8.25;;;;;;;;;;4904129;29;20212;-88
2022/11/06 00:22:50;;;;;;;13.77;7.68;;;6.30;99.90;;;;;;4904302;29;20212;-88
2022/11/06 00:25:17;;;;;;;12.70;7.47;;;6.30;99.90;;;;;;4905092;29;20239;-89
2022/11/06 00:27:44;;;;;;;8.10;6.50;;;;;;;;;;4904446;29;20701;-88
2022/11/06 00:30:11;;;;;;;8.05;6.50;;;6.20;99.90;;;;;;4904132;29;20212;-89
2022/11/06 00:32:40;;;;;;;8.95;6.97;;;;;;;;;;4903291;29;20212;-88
2022/11/06 00:35:07;;;;;;;11.68;6.90;;;6.30;99.90;;;;;;4910158;29;20212;-89
2022/11/06 00:37:35;;;;;;;19.08;8.20;;;;;;;;;;4922538;29;20188;-88
2022/11/06 00:40:02;;;;;;;15.98;8.50;;;;;;;;;;4922552;29;20192;-88
2022/11/06 00:42:32;;;;;;;12.10;8.48;;;6.20;99.90;;;;;;4920293;29;20224;-89
2022/11/06 00:44:59;;;;;;;11.13;7.78;;;;;;;;;;4920106;29;20220;-89
2022/11/06 00:47:28;;;;;;;14.63;8.30;;;;;;;;;;4919110;29;20256;-88
2022/11/06 00:49:56;;;;;;;14.80;7.88;;;;;;;;;;4922298;29;20225;-89
2022/11/06 00:52:24;;;;;;;13.95;7.57;;;6.10;99.90;;;;;;4921744;29;20228;-88
2022/11/06 00:54:51;;;;;;;11.18;7.75;;;;;;;;;;4918568;29;20228;-89
2022/11/06 00:57:18;;;;;;;10.38;7.60;;;;;;;;;;4911404;29;20208;-88
2022/11/06 00:59:45;;;;;;;11.40;7.25;;;;;;;;;;4905940;29;20219;-88
2022/11/06 01:02:13;;;;;;;12.40;7.15;;;;;;;;;;4904900;29;20209;-89
2022/11/06 01:04:40;;;;;;;12.88;7.32;;;;;;;;;;4904259;29;20284;-88
2022/11/06 01:07:08;;;;;;;10.85;7.20;;;6.30;99.90;;;;;;4909283;29;20209;-87
2022/11/06 01:09:35;;;;;;;12.93;7.07;;;5.90;99.90;;;;;;4906537;29;20238;-88
2022/11/06 01:12:01;;;;;;;11.55;7.65;;;6.10;99.90;;;;;;4906973;29;20569;-88
2022/11/06 01:14:29;;;;;;;14.18;7.80;;;5.90;99.90;;;;;;4920180;29;20235;-87
2022/11/06 01:16:56;;;;;;;14.63;9.63;;;6.00;99.90;;;;;;4919277;29;20212;-88
2022/11/06 01:19:23;;;;;;;13.40;9.93;;;6.00;99.90;;;;;;4912467;29;20208;-88
2022/11/06 01:21:52;;;;;;;17.60;11.95;;;6.00;99.90;;;;;;4908260;29;20223;-88
2022/11/06 01:24:22;;;;;;;12.35;9.15;;;5.90;99.90;;;;;;4905813;29;20240;-89
2022/11/06 01:26:49;;;;;;;18.15;7.95;;;5.90;99.90;;;;;;4903614;29;20272;-89
2022/11/06 01:29:18;;;;;;;10.60;8.07;;;5.90;99.90;;;;;;4911929;29;20212;-89
2022/11/06 01:31:46;;;;;;;11.88;8.95;;;5.30;99.90;;;;;;4921390;29;20229;-88
2022/11/06 01:34:13;;;;;;;12.63;9.00;;;5.90;99.90;;;;;;4921905;29;20216;-89
2022/11/06 01:36:40;;;;;;;20.45;9.23;;;5.90;99.90;;;;;;4917745;29;20617;-89
2022/11/06 01:39:09;;;;;;;14.57;7.78;;;5.90;99.90;;;;;;4907780;29;20205;-89
2022/11/06 01:41:39;;;;;;;18.63;8.65;;;6.00;99.90;;;;;;4906347;29;20209;-89
2022/11/06 01:44:26;;;;;;;12.93;7.53;;;6.20;99.90;;;;;;4907761;29;20269;-89
2022/11/06 01:46:53;;;;;;;12.38;9.00;;;6.00;99.90;;;;;;4906670;29;20580;-89
2022/11/06 01:49:20;;;;;;;13.68;8.80;;;6.00;99.90;;;;;;4907323;29;20224;-89
2022/11/06 01:51:49;;;;;;;13.45;7.88;;;5.90;99.90;;;;;;4905252;29;20677;-88
2022/11/06 01:54:17;;;;;;;10.65;7.50;;;5.90;99.90;;;;;;4905215;29;20240;-89
2022/11/06 01:56:48;;;;;;;15.40;8.48;;;5.90;99.90;;;;;;4905846;29;20216;-89
2022/11/06 01:59:17;;;;;;;13.98;8.80;;;6.00;99.90;;;;;;4907750;29;20212;-88
2022/11/06 02:01:45;;;;;;;11.07;7.97;;;6.10;99.90;;;;;;4905962;29;20216;-88
2022/11/06 02:04:17;;;;;;;11.35;7.68;;;6.00;99.90;;;;;;4907017;29;20228;-88
2022/11/06 02:06:45;;;;;;;9.68;8.35;;;6.00;99.90;;;;;;4906004;29;20204;-88
2022/11/06 02:09:12;;;;;;;13.30;8.30;;;6.10;99.90;;;;;;4907652;29;20338;-88
2022/11/06 02:11:39;;;;;;;13.18;8.27;;;;;;;;;;4914587;29;20212;-87
2022/11/06 02:14:18;;;;;;;10.25;7.75;;;5.90;99.90;;;;;;4921830;29;20281;-88
2022/11/06 02:16:51;;;;;;;13.18;8.00;;;6.20;99.90;;;;;;4910409;29;20193;-89
2022/11/06 02:19:48;;;;;;;13.90;8.30;;;6.20;99.90;;;;;;4906527;29;20204;-89
2022/11/06 02:22:30;;;;;;;12.70;7.90;;;6.20;99.90;;;;;;4908292;29;20193;-89
2022/11/06 02:25:22;;;;;;;12.93;9.27;;;6.20;99.90;;;;;;4907669;29;20228;-89
2022/11/06 02:27:56;;;;;;;15.38;7.95;;;7.20;99.90;;;;;;4908801;29;20216;-88
2022/11/06 02:30:22;;;;;;;13.57;7.65;;;6.10;99.90;;;;;;4908003;29;20236;-89
2022/11/06 02:32:55;;;;;;;15.52;9.00;;;6.20;99.90;;;;;;4908071;29;20209;-88
2022/11/06 02:35:28;;;;;;;11.00;9.25;;;6.50;99.90;;;;;;4907298;29;20263;-87
2022/11/06 02:37:59;;;;;;;12.15;8.15;;;6.10;99.90;;;;;;4911016;29;20220;-88
2022/11/06 02:40:32;;;;;;;10.93;8.55;;;6.10;99.90;;;;;;4915730;29;20207;-87
2022/11/06 02:43:05;;;;;;;11.70;8.20;;;6.10;99.90;;;;;;4916661;29;20201;-88
2022/11/06 02:45:37;;;;;;;12.55;7.97;;;6.20;99.90;;;;;;4916145;29;20267;-88
2022/11/06 02:48:07;;;;;;;11.02;7.30;;;6.00;99.90;;;;;;4914625;29;20200;-87
2022/11/06 02:50:41;;;;;;;7.78;7.00;;;6.20;99.90;;;;;;4914643;29;20213;-88
2022/11/06 02:53:13;;;;;;;15.82;8.68;;;6.40;99.90;;;;;;4921259;29;20188;-88
2022/11/06 02:55:45;;;;;;;12.98;8.30;;;6.30;99.90;;;;;;4905618;29;20237;-89
2022/11/06 02:58:18;;;;;;;11.32;7.47;;;6.30;99.90;;;;;;4905586;29;20232;-88
2022/11/06 03:00:50;;;;;;;9.70;7.38;;;6.30;99.90;;;;;;4888004;29;20239;-88
2022/11/06 03:03:22;;;;;;;12.55;7.22;;;6.30;99.90;;;;;;4885548;29;20217;-88
2022/11/06 03:37:19;;;;;;;10.43;8.05;;;6.00;99.90;;;;;;4838601;29;20286;-90
2022/11/06 03:39:58;;;;;;;12.85;7.88;;;6.00;99.90;;;;;;4891199;23;20256;-88
2022/11/06 03:42:48;;;;;;;10.18;7.80;;;6.00;99.90;;;;;;4911266;29;20211;-88
2022/11/06 03:45:20;;;;;;;12.48;8.10;;;5.90;99.90;;;;;;4907630;29;20192;-88
2022/11/06 03:47:59;;;;;;;19.73;7.85;;;5.80;99.90;;;;;;4913790;29;20189;-90
2022/11/06 03:50:36;;;;;;;7.93;7.07;;;5.80;99.90;;;;;;4914700;29;20252;-90
2022/11/06 03:53:12;;;;;;;13.85;7.45;;;5.80;99.90;;;;;;4917188;29;20252;-90
2022/11/06 03:55:47;;;;;;;18.02;9.90;;;5.90;99.90;;;;;;4912425;29;20224;-90
2022/11/06 03:58:29;;;;;;;11.80;8.27;;;5.90;99.90;;;;;;4906120;29;20192;-90
2022/11/06 04:01:05;;;;;;;8.85;7.57;;;5.70;99.90;;;;;;4913046;29;20247;-89
2022/11/06 04:03:42;;;;;;;9.07;8.05;;;5.80;99.90;;;;;;4909903;29;20192;-90
2022/11/06 04:06:21;;;;;;;11.13;6.97;;;5.80;99.90;;;;;;4906335;29;20220;-89
2022/11/06 04:17:24;;;;;;;9.35;8.35;;;5.80;99.90;;;;;;4909435;29;20216;-90
2022/11/06 04:19:57;;;;;;;11.57;8.00;;;5.80;99.90;;;;;;4904159;29;20292;-90
2022/11/06 04:22:47;;;;;;;12.80;8.65;;;5.80;99.90;;;;;;4903721;29;20224;-90
2022/11/06 04:28:25;;;;;;;11.65;7.60;;;5.80;99.90;;;;;;4908046;29;20214;-90
2022/11/06 04:31:02;;;;;;;11.07;8.95;;;5.70;99.90;;;;;;4922774;29;20228;-91
2022/11/06 04:33:37;;;;;;;12.70;9.00;;;5.40;99.90;;;;;;4922762;29;20200;-90
2022/11/06 04:36:24;;;;;;;11.90;8.30;;;5.70;99.90;;;;;;4922616;29;20192;-89
2022/11/06 04:39:06;;;;;;;11.82;8.15;;;5.70;99.90;;;;;;4922765;29;20197;-91
2022/11/06 04:41:47;;;;;;;10.32;7.85;;;5.70;99.90;;;;;;4922758;29;20217;-92
2022/11/06 04:44:21;;;;;;;22.00;9.10;;;5.80;99.90;;;;;;4919608;29;20201;-90
2022/11/06 04:47:01;;;;;;;12.85;9.00;;;5.70;99.90;;;;;;4911092;29;20272;-90
2022/11/06 04:49:43;;;;;;;39.45;10.85;;;5.70;99.90;;;;;;4907086;29;20232;-91
2022/11/06 04:52:25;;;;;;;35.13;11.13;;;5.70;99.90;;;;;;4907156;29;20696;-91
2022/11/06 04:55:04;;;;;;;17.83;8.85;;;5.70;99.90;;;;;;4906557;29;20241;-91
2022/11/06 05:00:18;;;;;;;10.23;8.27;;;5.70;99.90;;;;;;4905017;29;20215;-90
2022/11/06 05:02:59;;;;;;;15.45;8.32;;;5.70;99.90;;;;;;4921811;29;20444;-91
2022/11/06 05:05:34;;;;;;;9.90;8.15;;;5.70;99.90;;;;;;4922700;29;20272;-88
2022/11/06 05:08:05;;;;;;;17.88;8.32;;;;;;;;;;4914792;29;20205;-88
2022/11/06 05:10:48;;;;;;;13.15;7.40;;;5.60;99.90;;;;;;4901598;29;20672;-88
2022/11/06 05:13:20;;;;;;;11.20;7.75;;;5.60;99.90;;;;;;4904343;29;20311;-88
2022/11/06 05:15:56;;;;;;;14.02;9.95;;;5.60;99.90;;;;;;4904728;29;20248;-88
2022/11/06 05:18:24;;;;;;;11.65;7.82;;;;;;;;;;4904737;29;20193;-88
2022/11/06 05:22:56;;;;;;;11.35;9.00;;;5.70;99.90;;;;;;4904104;29;20232;-89
2022/11/06 05:23:41;;;;;;;14.00;7.57;;;;;;;;;;4904008;29;20212;-88
2022/11/06 05:26:11;;;;;;;13.70;8.80;;;5.60;99.90;;;;;;4904034;29;20616;-88
2022/11/06 05:28:50;;;;;;;10.70;8.50;;;;;;;;;;4903634;29;20208;-88
2022/11/06 05:31:17;;;;;;;15.73;10.00;;;;;;;;;;4904101;29;20228;-88
2022/11/06 05:33:44;;;;;;;14.03;8.90;;;;;;;;;;4903773;29;20523;-88
2022/11/06 05:36:12;;;;;;;10.48;9.02;;;5.50;99.90;;;;;;4904503;29;20524;-88
2022/11/06 05:38:45;;;;;;;11.13;8.70;;;5.40;99.90;;;;;;4904861;29;20209;-88
2022/11/06 05:41:12;;;;;;;15.32;8.77;;;5.40;99.90;;;;;;4906954;29;20240;-88
2022/11/06 05:43:39;;;;;;;10.48;8.00;;;5.50;99.90;;;;;;4905054;29;20238;-88
2022/11/06 05:46:06;;;;;;;14.15;10.43;;;;;;;;;;4904942;29;20303;-89
2022/11/06 05:48:33;;;;;;;14.27;9.73;;;5.40;99.90;;;;;;4904424;29;20219;-89
2022/11/06 05:51:05;;;;;;;14.73;9.07;;;5.50;99.90;;;;;;4905089;29;20261;-89
2022/11/06 05:53:35;;;;;;;11.40;7.85;;;5.50;99.90;;;;;;4906068;29;20196;-89
2022/11/06 05:56:02;;;;;;;11.15;8.68;;;5.60;99.90;;;;;;4906047;29;20266;-89
2022/11/06 05:58:29;;;;;;;13.15;9.13;;;5.80;99.90;;;;;;4905328;29;20213;-89
2022/11/06 06:00:56;;;;;;;14.10;9.25;;;5.50;99.90;;;;;;4924246;29;20268;-89
2022/11/06 06:03:26;;;;;;;11.93;8.48;;;5.50;99.90;;;;;;4925144;29;20189;-90
2022/11/06 06:05:53;;;;;;;12.13;8.40;;;5.50;99.90;;;;;;4919016;29;20266;-89
2022/11/06 06:08:20;;;;;;;15.75;9.05;;;5.40;99.90;;;;;;4905023;29;20220;-89
2022/11/06 06:10:48;;;;;;;14.75;8.70;;;5.40;99.90;;;;;;4905750;29;20236;-87
2022/11/06 06:13:17;;;;;;;11.45;8.85;;;5.50;99.90;;;;;;4906545;29;20224;-88
2022/11/06 06:15:44;;;;;;;16.58;8.68;;;5.40;99.90;;;;;;4904452;29;20213;-88
2022/11/06 06:18:11;;;;;;;14.38;8.52;;;5.30;99.90;;;;;;4905519;29;20213;-88
2022/11/06 06:20:39;;;;;;;12.40;9.13;;;5.50;99.90;;;;;;4903812;29;20331;-88
2022/11/06 06:23:06;;;;;;;11.50;9.32;;;;;;;;;;4903106;29;20269;-88
2022/11/06 06:25:33;;;;;;;15.05;9.95;;;;;;;;;;4903725;29;20232;-88
2022/11/06 06:28:02;;;;;;;11.30;8.98;;;5.40;99.90;;;;;;4902864;29;20336;-88
2022/11/06 06:30:28;;;;;;;12.57;9.23;;;5.30;99.90;;;;;;4904361;29;20251;-88
2022/11/06 06:32:55;;;;;;;14.65;8.52;;;5.20;99.90;;;;;;4907500;29;20204;-88
2022/11/06 06:35:22;;;;;;;11.23;8.38;;;5.60;99.90;;;;;;4908759;29;20213;-88
2022/11/06 06:37:53;;;;;;;15.05;9.20;;;5.40;99.90;;;;;;4906790;29;20212;-88
2022/11/06 06:40:22;;;;;;;11.65;9.38;;;5.50;99.90;;;;;;4903876;29;20240;-87
2022/11/06 06:42:51;;;;;;;14.07;9.40;;;5.50;99.90;;;;;;4903266;29;20720;-88
2022/11/06 06:45:26;;;;;;;15.98;10.23;;;5.50;99.90;;;;;;4906931;29;20197;-88
2022/11/06 06:47:56;;;;;;;11.98;9.10;;;5.50;99.90;;;;;;4922376;29;20196;-88
2022/11/06 06:53:09;;;;;;;16.98;9.15;;;5.50;99.90;;;;;;4903393;29;20211;-88
2022/11/06 06:55:36;;;;;;;17.05;10.23;;;;;;;;;;4903218;29;20215;-88
2022/11/06 06:58:09;;;;;;;20.27;9.65;;;;;;;;;;4902365;29;20205;-87
2022/11/06 07:00:37;;;;;;;15.10;9.73;;;5.60;99.90;;;;;;4902670;29;20228;-87
2022/11/06 07:03:05;;;;;;;10.77;8.65;;;;;;;;;;4905794;29;20295;-89
2022/11/06 07:05:34;;;;;;;12.43;9.27;;;;;;;;;;4923004;29;20192;-89
2022/11/06 07:08:02;;;;;;;12.77;10.45;;;;;;;;;;4922274;29;20188;-89
2022/11/06 07:10:34;;;;;;;10.68;8.95;;;5.70;99.90;;;;;;4922891;29;20216;-89
2022/11/06 07:13:05;;;;;;;12.55;9.07;;;5.70;99.90;;;;;;4922814;29;20198;-89
2022/11/06 07:15:49;;;;;;;17.15;10.93;;;5.80;99.90;;;;;;4923447;29;20177;-89
2022/11/06 07:31:52;;;;;;;20.42;8.57;;;6.00;99.90;;;;;;4850005;29;20287;-89
2022/11/06 07:42:28;;;;;;;11.90;8.70;;;6.20;99.90;;;;;;4925582;23;20315;-89
2022/11/06 07:45:25;;;;;;;11.70;8.57;;;6.30;99.90;;;;;;4922558;29;20188;-92
2022/11/06 07:51:26;;;;;;;15.27;10.55;;;6.40;99.90;;;;;;4920025;29;20243;-90
2022/11/06 07:54:07;;;;;;;11.23;9.98;;;6.40;99.90;;;;;;4922409;29;20204;-91
2022/11/06 07:56:38;;;;;;;13.10;10.40;;;;;;;;;;4921622;29;20189;-90
2022/11/06 07:59:14;;;;;;;11.02;9.52;;;;;;;;;;4918822;29;20211;-91
2022/11/06 08:01:47;;;;;;;15.68;9.25;;;;;;;;;;4906954;29;20236;-91
2022/11/06 08:04:22;;;;;;;12.82;8.30;;;;;;;;;;4909998;29;20237;-91
2022/11/06 08:07:07;;;;;;;14.00;10.85;;;6.60;99.90;;;;;;4907495;29;20216;-92
2022/11/06 08:12:40;;;;;;;11.30;9.05;;;;;;;;;;4921626;29;20307;-89
2022/11/06 08:15:10;;;;;;;12.48;8.43;;;6.70;99.90;;;;;;4916572;29;20200;-91
2022/11/06 08:17:39;;;;;;;12.45;9.63;;;;;;;;;;4920542;29;20224;-90
2022/11/06 08:20:07;;;;;;;13.93;9.07;;;;;;;;;;4920799;29;20196;-87
2022/11/06 08:25:43;;;;;;;13.60;9.88;;;7.00;99.90;;;;;;5152234;23;20251;-90
2022/11/06 08:49:54;;;;;;;11.35;8.40;;;;;;;;;;4782820;29;20307;-86
2022/11/06 08:52:25;;;;;;;14.07;9.38;;;;;;;;;;4886495;29;20199;-86
2022/11/06 08:59:13;;;;;;;13.23;8.95;;;7.80;99.90;;;;;;4810990;29;20731;-86
2022/11/06 09:01:41;;;;;;;10.10;8.85;;;;;;;;;;4832173;29;20214;-88
2022/11/06 09:04:53;;;;;;;11.15;7.72;;;7.80;1.00;;;;;;4859256;29;20271;-88
2022/11/06 09:07:30;;;;;;;12.23;7.85;;;7.90;1.00;;;;;;4855850;29;20315;-87
2022/11/06 09:10:03;;;;;;;16.50;10.07;;;7.90;1.00;;;;;;4887120;29;20576;-87
2022/11/06 09:13:13;;;;;;;13.80;8.60;;;8.00;1.00;;;;;;4887686;29;20435;-87
2022/11/06 09:15:52;;;;;;;12.13;8.95;;;8.20;1.00;;;;;;4880796;29;20213;-86
2022/11/06 09:18:31;;;;;;;11.65;8.10;;;8.30;99.90;;;;;;4889766;29;20236;-87
2022/11/06 09:21:02;;;;;;;10.33;7.93;;;8.30;38.30;;;;;;4892478;29;20226;-87
2022/11/06 09:23:30;;;;;;;12.57;8.80;;;;;;;;;;4892731;29;20505;-88
2022/11/06 09:26:05;;;;;;;11.23;8.57;;;8.40;1.00;;;;;;4888944;29;20435;-87
2022/11/06 09:28:34;;;;;;;10.48;8.20;;;8.50;1.00;;;;;;4887350;29;20251;-87
2022/11/06 09:31:11;;;;;;;12.88;8.90;;;8.50;1.00;;;;;;4889543;29;20749;-88
2022/11/06 09:36:36;;;;;;;10.53;7.60;;;8.60;1.00;;;;;;4887797;29;20208;-88
2022/11/06 09:39:05;;;;;;;11.15;8.60;;;;;;;;;;4887398;29;20485;-88
2022/11/06 09:41:52;;;;;;;11.25;9.50;;;8.70;1.00;;;;;;4889128;29;20237;-88
2022/11/06 09:44:54;;;;;;;9.13;7.40;;;8.90;99.90;;;;;;4889730;29;20213;-88
2022/11/06 09:47:55;;;;;;;8.97;7.83;;;8.90;29.80;;;;;;4891354;29;20513;-88
2022/11/06 09:53:53;;;;;;;9.80;7.83;;;9.00;99.90;;;;;;4853249;29;20436;-88
2022/11/06 09:56:36;;;;;;;10.70;7.47;;;8.90;1.00;;;;;;4893248;29;20412;-89
2022/11/06 09:59:11;;;;;;;9.70;7.60;;;9.10;28.50;;;;;;4889165;29;20474;-88
2022/11/06 10:01:48;;;;;;;11.50;7.13;;;9.20;16.70;;;;;;4889724;29;20424;-88
2022/11/06 10:04:29;;;;;;;10.93;6.87;;;9.10;1.00;;;;;;4888737;29;20473;-88
2022/11/06 10:07:00;;;;;;;9.93;8.13;;;9.20;1.00;;;;;;4900659;29;20465;-89
2022/11/06 10:09:33;;;;;;;12.32;7.50;;;9.30;99.90;;;;;;4905955;29;20452;-89
2022/11/06 10:12:14;;;;;;;9.77;6.30;;;9.30;1.00;;;;;;4906004;29;20210;-91
2022/11/06 10:22:35;;;;;;;7.13;5.80;;;9.40;99.90;;;;;;4897286;29;20420;-90
2022/11/06 10:39:21;;;;;;;8.93;6.83;;;9.60;99.90;;;;;;4877489;29;20465;-89
2022/11/06 10:41:55;;;;;;;10.33;7.40;;;9.60;99.90;;;;;;4871250;29;20526;-89
2022/11/06 10:44:28;;;;;;;9.47;7.53;;;9.60;84.60;;;;;;4894640;29;20520;-89
2022/11/06 10:47:04;;;;;;;8.73;7.80;;;9.70;99.90;;;;;;4895476;29;20448;-90
2022/11/06 10:49:44;;;;;;;12.13;7.00;;;9.70;1.00;;;;;;4889774;29;20467;-89
2022/11/06 10:56:03;;;;;;;8.17;7.00;;;9.70;86.70;;;;;;4845442;29;20516;-89
2022/11/06 10:58:52;;;;;;;9.43;7.23;;;9.70;1.00;;;;;;4890512;29;20478;-90
2022/11/06 11:01:30;;;;;;;13.27;7.20;;;9.70;1.00;;;;;;4891155;29;20415;-91
2022/11/06 11:04:04;;;;;;;8.90;6.50;;;9.80;99.90;;;;;;4890990;29;20462;-90
2022/11/06 11:06:34;;;;;;;8.97;7.43;;;9.90;1.00;;;;;;4890431;29;20547;-89
2022/11/06 11:23:59;;;;;;;7.80;6.57;;;10.00;1.00;;;;;;4751039;29;20881;-90
2022/11/06 11:33:44;;;;;;;8.90;6.93;;;10.20;1.00;;;;;;4885780;29;20437;-89
2022/11/06 11:36:12;;;;;;;9.43;6.70;;;12.10;99.90;;;;;;4890737;29;20503;-89
2022/11/06 11:41:48;;;;;;;7.93;6.43;;;;;;;;;;4864868;29;20433;-84
2022/11/06 11:44:22;;;;;;;7.03;6.30;;;10.40;1.00;;;;;;4887441;29;20466;-85
2022/11/06 12:25:52;;;;;;;6.47;5.00;;;10.70;99.90;;;;;;5102567;28;20567;-86
2022/11/06 12:28:27;;;;;;;10.27;6.60;;;10.80;99.90;;;;;;5100754;28;20474;-86
2022/11/06 12:31:09;;;;;;;10.70;7.43;;;10.80;99.90;;;;;;5109800;28;20459;-84
2022/11/06 12:33:58;;;;;;;8.90;6.50;;;10.80;99.90;;;;;;5099940;28;20452;-85
2022/11/06 12:36:38;;;;;;;5.27;4.63;;;10.80;99.90;;;;;;5099775;28;20909;-85
2022/11/06 12:52:22;;;;;;;10.60;7.00;;;10.90;1.00;;;;;;6085211;22;22145;-85
2022/11/06 12:55:12;;;;;;;13.23;9.60;;;10.90;99.90;;;;;;5063571;28;20397;-85
2022/11/06 12:57:51;;;;;;;8.80;5.40;;;10.90;99.90;;;;;;5058462;28;20426;-85
2022/11/06 13:00:21;;;;;;;5.87;4.60;;;10.80;99.90;;;;;;5057714;28;20418;-85
2022/11/06 13:03:27;;;;;;;8.93;5.67;;;10.80;99.90;;;;;;5055502;28;20473;-85
2022/11/06 13:06:06;;;;;;;7.55;5.05;;;10.90;99.90;;;;;;5056147;28;20515;-86
2022/11/06 13:19:17;;;;;;;5.20;4.60;;;10.90;1.00;;;;;;5088708;22;20515;-84
2022/11/06 13:22:10;;;;;;;5.23;4.30;;;10.90;1.00;;;;;;5079821;28;20401;-84
2022/11/06 13:25:09;;;;;;;8.20;5.70;;;10.90;1.00;;;;;;5079937;28;20444;-84
2022/11/06 13:27:42;;;;;;;8.00;5.60;;;11.00;1.00;;;;;;5075139;28;20461;-84
2022/11/06 13:30:15;;;;;;;6.63;6.03;;;11.00;99.90;;;;;;5080630;28;20412;-84
2022/11/06 13:32:50;;;;;;;10.10;7.13;;;11.00;99.90;;;;;;5080918;28;20434;-83
2022/11/06 13:35:40;;;;;;;4.40;3.80;;;;;;;;;;5079278;28;20427;-85
2022/11/06 13:38:14;;;;;;;4.50;4.10;;;10.90;99.90;;;;;;5075760;28;20291;-85
2022/11/06 13:40:52;;;;;;;6.43;4.50;;;10.90;99.90;;;;;;5074235;28;20438;-84
2022/11/06 13:43:27;;;;;;;5.33;4.80;;;10.90;99.90;;;;;;5070037;28;20448;-85
2022/11/06 13:45:59;;;;;;;5.20;4.10;;;10.90;1.00;;;;;;5066142;28;20452;-86
2022/11/06 13:48:38;;;;;;;5.03;4.50;;;10.90;1.00;;;;;;5064140;28;20460;-85
2022/11/06 13:51:24;;;;;;;7.57;3.93;;;11.00;99.90;;;;;;5063929;28;20437;-85
2022/11/06 13:54:07;;;;;;;4.87;4.47;;;10.90;99.90;;;;;;5063277;28;20449;-85
2022/11/06 13:56:51;;;;;;;6.93;5.50;;;10.90;99.90;;;;;;5063265;28;20438;-85
2022/11/06 13:59:51;;;;;;;6.73;4.90;;;10.90;99.90;;;;;;5070707;28;20462;-85
2022/11/06 14:02:42;;;;;;;5.50;4.10;;;10.90;99.90;;;;;;5065495;28;20431;-85
2022/11/06 14:05:46;;;;;;;5.67;5.13;;;10.90;99.90;;;;;;5064354;28;20529;-86
2022/11/06 14:08:18;;;;;;;8.68;4.65;;;;;;;;;;5048821;28;20440;-85
2022/11/06 14:10:54;;;;;;;6.32;4.18;;;10.60;69.20;;;;;;5063149;28;20481;-85
2022/11/06 14:13:29;;;;;;;5.00;4.50;;;10.90;99.90;;;;;;5064726;28;20203;-84
2022/11/06 14:16:06;;;;;;;7.10;6.13;;;10.90;1.00;;;;;;5064848;28;20435;-84
2022/11/06 14:18:36;;;;;;;7.97;5.97;;;10.80;99.90;;;;;;5065709;28;20560;-86
2022/11/06 14:21:51;;;;;;;9.47;7.50;;;10.90;1.00;;;;;;5068145;28;20446;-87
2022/11/06 14:24:34;;;;;;;4.83;4.00;;;10.80;99.90;;;;;;5066145;28;20484;-85
2022/11/06 14:27:02;;;;;;;6.27;4.20;;;10.80;99.90;;;;;;5068555;28;20472;-84
2022/11/06 14:29:57;;;;;;;6.83;5.13;;;10.90;1.00;;;;;;5074530;28;20529;-83
2022/11/06 14:32:39;;;;;;;5.03;4.20;;;10.70;1.00;;;;;;5071684;28;20425;-85
2022/11/06 14:35:49;;;;;;;10.13;4.87;;;10.80;99.90;;;;;;5076782;28;20424;-85
2022/11/06 14:38:32;;;;;;;6.80;4.87;;;10.80;99.90;;;;;;5066015;28;20497;-85
2022/11/06 14:41:01;;;;;;;6.23;3.77;;;10.70;99.90;;;;;;5062464;28;20564;-86
2022/11/06 14:43:31;;;;;;;4.50;4.20;;;10.70;1.00;;;;;;5062797;28;20896;-84
2022/11/06 14:46:01;;;;;;;8.53;4.60;;;10.70;99.90;;;;;;5064302;28;20485;-85
2022/11/06 14:48:31;;;;;;;9.33;4.23;;;10.70;1.00;;;;;;5063187;28;21021;-85
2022/11/06 14:51:01;;;;;;;5.00;3.73;;;10.90;99.90;;;;;;5063764;28;20964;-86
2022/11/06 14:53:32;;;;;;;4.60;4.20;;;10.70;1.00;;;;;;5063065;28;20448;-85
2022/11/06 14:56:04;;;;;;;5.47;3.70;;;10.60;99.90;;;;;;5065396;28;20516;-86
2022/11/06 14:58:33;;;;;;;5.57;4.27;;;10.50;99.90;;;;;;5064447;28;20465;-85
2022/11/06 15:01:03;;;;;;;6.13;4.57;;;10.60;99.90;;;;;;5063675;28;20442;-85
2022/11/06 15:03:35;;;;;;;8.10;4.00;;;10.40;1.00;;;;;;5063743;28;20445;-85
2022/11/06 15:06:07;;;;;;;5.87;4.40;;;10.50;49.30;;;;;;5064830;28;20466;-86
2022/11/06 15:09:02;;;;;;;5.10;3.93;;;10.30;1.00;;;;;;5066203;28;20996;-85
2022/11/06 15:11:58;;;;;;;6.90;4.80;;;10.20;99.90;;;;;;5063868;28;20438;-86
2022/11/06 15:14:58;;;;;;;4.50;4.07;;;10.10;99.90;;;;;;5062533;28;20878;-86
2022/11/06 15:17:33;;;;;;;4.17;3.80;;;10.00;1.00;;;;;;5064169;28;20478;-85
2022/11/06 15:20:16;;;;;;;5.47;4.33;;;9.90;99.90;;;;;;5063299;28;20440;-86
2022/11/06 15:22:48;;;;;;;9.17;4.93;;;9.90;81.00;;;;;;5065621;28;20433;-85
2022/11/06 15:25:22;;;;;;;5.30;4.30;;;9.80;1.00;;;;;;5062364;28;20455;-85
2022/11/06 15:27:59;;;;;;;5.57;4.10;;;9.80;43.40;;;;;;5062721;28;20291;-86
2022/11/06 15:30:27;;;;;;;6.70;4.43;;;9.60;31.40;;;;;;5062321;28;20540;-86
2022/11/06 15:32:55;;;;;;;6.00;5.00;;;9.60;1.00;;;;;;5063766;28;20441;-85
2022/11/06 15:35:24;;;;;;;6.53;4.77;;;9.70;1.00;;;;;;5065364;28;20452;-85
2022/11/06 15:37:54;;;;;;;7.03;4.27;;;9.60;99.90;;;;;;5063393;28;20476;-85
2022/11/06 15:40:27;;;;;;;7.37;5.07;;;10.30;1.00;;;;;;5063166;28;20511;-85
2022/11/06 15:42:57;;;;;;;10.33;5.87;;;9.50;99.90;;;;;;5060884;28;20521;-86
2022/11/06 15:45:26;;;;;;;11.03;5.47;;;9.10;1.00;;;;;;5060096;28;20466;-85
2022/11/06 15:47:58;;;;;;;6.70;4.47;;;9.40;1.00;;;;;;5060216;28;20469;-86
2022/11/06 15:50:28;;;;;;;5.90;4.37;;;9.40;99.90;;;;;;5059362;28;20430;-86
2022/11/06 15:52:55;;;;;;;5.07;4.67;;;9.40;1.00;;;;;;5060521;28;20503;-85
2022/11/06 15:55:27;;;;;;;6.17;5.67;;;9.30;1.00;;;;;;5066878;28;20449;-84
2022/11/06 15:58:07;;;;;;;6.57;5.93;;;9.10;99.90;;;;;;5075702;28;20500;-84
2022/11/06 16:00:36;;;;;;;6.73;4.40;;;9.10;99.90;;;;;;5075296;28;20544;-84
2022/11/06 16:03:05;;;;;;;8.68;4.70;;;9.30;99.90;;;;;;5076989;28;20446;-84
2022/11/06 16:05:34;;;;;;;7.88;5.35;;;9.20;1.00;;;;;;5076978;28;20448;-83
2022/11/06 16:08:03;;;;;;;6.60;4.70;;;9.20;99.90;;;;;;5077946;28;20214;-84
2022/11/06 16:10:30;;;;;;;7.10;4.50;;;9.10;56.80;;;;;;5077391;28;20437;-84
2022/11/06 16:12:58;;;;;;;6.80;4.43;;;9.10;44.60;;;;;;5075589;28;20453;-85
2022/11/06 16:15:56;;;;;;;5.57;4.50;;;9.10;99.90;;;;;;5074143;28;20426;-85
2022/11/06 16:18:28;;;;;;;5.63;4.87;;;9.00;99.90;;;;;;4986997;28;20880;-85
2022/11/06 16:20:58;;;;;;;6.03;4.90;;;9.00;99.90;;;;;;5051005;28;20450;-85
2022/11/06 16:23:30;;;;;;;7.93;5.80;;;9.00;1.00;;;;;;5060737;28;20445;-85
2022/11/06 16:26:03;;;;;;;8.43;5.40;;;9.10;99.90;;;;;;5061378;28;20437;-85
2022/11/06 16:28:33;;;;;;;6.93;6.23;;;8.90;99.90;;;;;;5061767;28;20227;-86
2022/11/06 16:31:08;;;;;;;7.73;5.53;;;8.90;99.90;;;;;;5061703;28;20424;-86
2022/11/06 16:33:35;;;;;;;8.00;6.33;;;8.90;99.90;;;;;;5057813;28;20437;-84
2022/11/06 16:36:13;;;;;;;8.10;7.40;;;8.90;99.90;;;;;;5061238;28;20912;-85
2022/11/06 16:38:43;;;;;;;8.30;6.80;;;9.00;99.90;;;;;;5059831;28;20477;-85
2022/11/06 16:41:36;;;;;;;12.67;6.43;;;9.10;99.90;;;;;;5057908;28;20482;-86
2022/11/06 16:44:23;;;;;;;8.47;5.77;;;8.90;1.00;;;;;;5056986;28;20445;-84
2022/11/06 16:47:12;;;;;;;7.80;7.00;;;8.80;99.90;;;;;;5059106;28;20489;-85
2022/11/06 16:49:41;;;;;;;9.73;8.77;;;8.80;1.00;;;;;;5061398;28;20427;-85
2022/11/06 16:52:21;;;;;;;7.20;6.03;;;8.80;1.00;;;;;;5070639;28;20434;-85
2022/11/06 16:54:49;;;;;;;6.20;5.00;;;8.80;1.00;;;;;;5067030;28;20413;-85
2022/11/06 16:57:19;;;;;;;15.93;5.70;;;8.90;99.90;;;;;;5067388;28;20472;-85
2022/11/06 16:59:58;;;;;;;10.60;6.40;;;8.90;99.90;;;;;;5066437;28;20469;-85
2022/11/06 17:02:28;;;;;;;8.30;5.73;;;8.70;1.00;;;;;;5064508;28;20426;-85
2022/11/06 17:05:17;;;;;;;7.80;6.03;;;9.30;1.00;;;;;;5064760;28;20806;-85
2022/11/06 17:07:45;;;;;;;5.80;5.10;;;8.60;1.00;;;;;;5065974;28;20440;-86
2022/11/06 17:10:25;;;;;;;8.73;5.80;;;8.60;1.00;;;;;;5068095;28;20428;-85
2022/11/06 17:12:52;;;;;;;5.97;5.33;;;8.50;1.00;;;;;;5064873;28;20829;-85
2022/11/06 17:15:20;;;;;;;6.53;5.17;;;8.60;99.90;;;;;;5064340;28;20442;-85
2022/11/06 17:17:49;;;;;;;7.00;6.27;;;10.10;1.00;;;;;;5064364;28;20456;-86
2022/11/06 17:20:18;;;;;;;7.57;6.20;;;8.50;99.90;;;;;;5063463;28;20428;-85
2022/11/06 17:22:45;;;;;;;5.90;5.30;;;8.40;99.90;;;;;;5062984;28;20424;-85
2022/11/06 17:25:12;;;;;;;8.13;6.37;;;8.20;1.00;;;;;;5061988;28;20518;-85
2022/11/06 17:27:39;;;;;;;10.20;6.10;;;8.50;99.90;;;;;;5063155;28;20470;-85
2022/11/06 17:30:07;;;;;;;6.83;5.53;;;8.40;1.00;;;;;;5067738;28;20517;-85